createdAt,value
2018-06-01T00:00:00.922Z,591.30
2018-06-01T00:01:00.766Z,536.50
2018-06-01T00:02:00.818Z,565.30
2018-06-01T00:03:00.868Z,517.40
2018-06-01T00:04:00.906Z,527.00
2018-06-01T00:05:00.955Z,400.30
2018-06-01T00:06:01.001Z,430.70
2018-06-01T00:07:01.043Z,405.90
2018-06-01T00:08:01.085Z,395.90
2018-06-01T00:09:01.131Z,403.30
2018-06-01T00:10:01.177Z,358.40
2018-06-01T00:11:01.225Z,302.60
2018-06-01T00:12:01.484Z,330.90
2018-06-01T00:13:01.317Z,308.80
2018-06-01T00:14:01.356Z,338.30
2018-06-01T00:15:01.413Z,300.70
2018-06-01T00:16:01.459Z,363.30
2018-06-01T00:17:01.495Z,375.10
2018-06-01T00:18:01.542Z,382.50
2018-06-01T00:19:01.591Z,326.30
2018-06-01T00:20:01.623Z,352.30
2018-06-01T00:21:01.673Z,343.00
2018-06-01T00:22:01.726Z,308.40
2018-06-01T00:23:01.769Z,312.20
2018-06-01T00:24:01.814Z,374.40
2018-06-01T00:25:01.859Z,421.70
2018-06-01T00:26:01.899Z,390.20
2018-06-01T00:27:02.057Z,369.70
2018-06-01T00:28:01.994Z,379.30
2018-06-01T00:29:02.041Z,375.90
2018-06-01T00:30:02.084Z,375.70
2018-06-01T00:31:02.134Z,372.00
2018-06-01T00:32:02.169Z,377.80
2018-06-01T00:33:02.236Z,402.10
2018-06-01T00:34:02.276Z,437.40
2018-06-01T00:35:02.336Z,469.00
2018-06-01T00:36:02.354Z,445.20
2018-06-01T00:37:02.426Z,387.70
2018-06-01T00:38:02.457Z,351.80
2018-06-01T00:39:02.507Z,403.60
2018-06-01T00:40:02.547Z,416.40
2018-06-01T00:41:02.595Z,439.80
2018-06-01T00:42:02.636Z,436.30
2018-06-01T00:43:02.694Z,404.00
2018-06-01T00:44:02.731Z,371.30
2018-06-01T00:45:02.766Z,392.10
2018-06-01T00:46:02.812Z,418.20
2018-06-01T00:47:02.872Z,424.00
2018-06-01T00:48:02.910Z,379.60
2018-06-01T00:49:02.967Z,394.90
2018-06-01T00:50:04.510Z,352.30
2018-06-01T00:51:03.049Z,366.20
2018-06-01T00:52:03.092Z,364.20
2018-06-01T00:53:03.130Z,337.30
2018-06-01T00:54:03.189Z,332.50
2018-06-01T00:55:03.233Z,319.70
2018-06-01T00:56:03.297Z,326.60
2018-06-01T00:57:03.304Z,325.60
2018-06-01T00:58:03.365Z,351.00
2018-06-01T00:59:03.403Z,357.70
2018-06-01T01:00:03.459Z,403.70
2018-06-01T01:01:03.518Z,406.90
2018-06-01T01:02:03.554Z,367.80
2018-06-01T01:03:03.581Z,349.90
2018-06-01T01:04:03.640Z,322.60
2018-06-01T01:05:03.687Z,343.80
2018-06-01T01:06:03.719Z,392.50
2018-06-01T01:07:03.784Z,404.30
2018-06-01T01:08:03.829Z,407.40
2018-06-01T01:09:03.874Z,379.60
2018-06-01T01:10:03.918Z,360.60
2018-06-01T01:11:03.961Z,358.30
2018-06-01T01:12:04.023Z,372.10
2018-06-01T01:13:04.054Z,372.30
2018-06-01T01:14:04.086Z,394.30
2018-06-01T01:15:04.127Z,388.20
2018-06-01T01:16:04.171Z,397.90
2018-06-01T01:17:04.220Z,376.50
2018-06-01T01:18:04.280Z,405.10
2018-06-01T01:19:04.533Z,383.90
2018-06-01T01:20:04.363Z,384.60
2018-06-01T01:21:04.402Z,381.40
2018-06-01T01:22:04.463Z,379.50
2018-06-01T01:23:04.512Z,394.20
2018-06-01T01:24:04.541Z,401.10
2018-06-01T01:25:04.581Z,410.20
2018-06-01T01:26:04.635Z,397.80
2018-06-01T01:27:04.672Z,399.40
2018-06-01T01:28:04.734Z,397.60
2018-06-01T01:29:04.767Z,416.10
2018-06-01T01:30:04.814Z,383.10
2018-06-01T01:31:04.860Z,392.20
2018-06-01T01:32:04.899Z,370.60
2018-06-01T01:33:04.973Z,358.90
2018-06-01T01:34:04.992Z,390.00
2018-06-01T01:35:05.050Z,363.90
2018-06-01T01:36:05.106Z,364.50
2018-06-01T01:37:05.135Z,364.30
2018-06-01T01:38:05.164Z,386.40
2018-06-01T01:39:05.233Z,363.90
2018-06-01T01:40:05.262Z,380.40
2018-06-01T01:41:05.312Z,344.40
2018-06-01T01:42:05.358Z,352.20
2018-06-01T01:43:05.652Z,376.20
2018-06-01T01:44:05.455Z,391.90
2018-06-01T01:45:05.495Z,396.70
2018-06-01T01:46:05.532Z,403.40
2018-06-01T01:47:05.576Z,402.60
2018-06-01T01:48:05.644Z,339.00
2018-06-01T01:49:05.672Z,315.60
2018-06-01T01:50:05.711Z,332.20
2018-06-01T01:51:05.767Z,324.20
2018-06-01T01:52:05.806Z,332.30
2018-06-01T01:53:05.857Z,318.90
2018-06-01T01:54:05.908Z,303.00
2018-06-01T01:55:05.940Z,334.00
2018-06-01T01:56:05.983Z,294.30
2018-06-01T01:57:06.035Z,302.20
2018-06-01T01:58:06.062Z,280.60
2018-06-01T01:59:06.129Z,276.90
2018-06-01T02:00:06.174Z,269.70
2018-06-01T02:01:06.198Z,258.80
2018-06-01T02:02:06.266Z,272.30
2018-06-01T02:03:06.304Z,230.30
2018-06-01T02:04:06.355Z,222.40
2018-06-01T02:05:06.385Z,220.40
2018-06-01T02:06:06.430Z,223.70
2018-06-01T02:07:06.490Z,194.80
2018-06-01T02:08:06.522Z,184.20
2018-06-01T02:09:06.593Z,180.10
2018-06-01T02:10:06.612Z,183.50
2018-06-01T02:11:06.654Z,200.70
2018-06-01T02:12:06.717Z,217.20
2018-06-01T02:13:06.777Z,201.30
2018-06-01T02:14:06.812Z,200.20
2018-06-01T02:15:06.846Z,187.70
2018-06-01T02:16:06.899Z,187.90
2018-06-01T02:17:06.925Z,184.50
2018-06-01T02:18:06.984Z,192.90
2018-06-01T02:19:07.021Z,208.90
2018-06-01T02:20:07.072Z,204.20
2018-06-01T02:21:07.106Z,203.80
2018-06-01T02:22:07.168Z,213.30
2018-06-01T02:23:07.414Z,231.90
2018-06-01T02:24:07.265Z,218.40
2018-06-01T02:25:07.316Z,220.00
2018-06-01T02:26:07.345Z,205.30
2018-06-01T02:27:07.384Z,213.90
2018-06-01T02:28:07.452Z,209.20
2018-06-01T02:29:07.498Z,222.10
2018-06-01T02:30:07.538Z,250.90
2018-06-01T02:31:07.575Z,269.70
2018-06-01T02:32:07.644Z,286.20
2018-06-01T02:33:07.654Z,293.20
2018-06-01T02:34:07.717Z,275.40
2018-06-01T02:35:07.945Z,278.40
2018-06-01T02:36:07.812Z,294.30
2018-06-01T02:37:07.833Z,315.40
2018-06-01T02:38:07.905Z,309.20
2018-06-01T02:39:07.924Z,335.60
2018-06-01T02:40:07.988Z,336.80
2018-06-01T02:41:08.034Z,347.60
2018-06-01T02:42:08.063Z,353.80
2018-06-01T02:43:08.104Z,355.10
2018-06-01T02:44:08.149Z,331.10
2018-06-01T02:45:08.213Z,369.50
2018-06-01T02:46:08.257Z,355.70
2018-06-01T02:47:08.307Z,370.20
2018-06-01T02:48:08.353Z,397.10
2018-06-01T02:49:08.393Z,417.20
2018-06-01T02:50:08.447Z,406.70
2018-06-01T02:51:08.501Z,384.70
2018-06-01T02:52:08.514Z,390.00
2018-06-01T02:53:08.573Z,430.00
2018-06-01T02:54:08.610Z,397.20
2018-06-01T02:55:08.665Z,417.60
2018-06-01T02:56:08.721Z,400.70
2018-06-01T02:57:08.968Z,417.90
2018-06-01T02:58:08.810Z,392.60
2018-06-01T02:59:08.847Z,351.70
2018-06-01T03:00:08.877Z,332.40
2018-06-01T03:01:08.934Z,323.40
2018-06-01T03:02:08.975Z,318.80
2018-06-01T03:03:09.031Z,306.40
2018-06-01T03:04:09.070Z,315.80
2018-06-01T03:05:09.122Z,299.50
2018-06-01T03:06:09.176Z,299.40
2018-06-01T03:07:09.224Z,316.30
2018-06-01T03:08:09.260Z,310.10
2018-06-01T03:09:09.515Z,285.80
2018-06-01T03:10:09.341Z,307.10
2018-06-01T03:11:09.381Z,334.90
2018-06-01T03:12:09.445Z,342.90
2018-06-01T03:13:09.492Z,347.60
2018-06-01T03:14:09.518Z,373.70
2018-06-01T03:15:09.582Z,379.10
2018-06-01T03:16:09.633Z,359.00
2018-06-01T03:17:09.671Z,364.70
2018-06-01T03:18:09.711Z,362.10
2018-06-01T03:19:09.762Z,368.70
2018-06-01T03:20:09.787Z,390.90
2018-06-01T03:21:10.061Z,417.40
2018-06-01T03:22:09.888Z,385.40
2018-06-01T03:23:09.932Z,387.40
2018-06-01T03:24:09.969Z,359.60
2018-06-01T03:25:10.036Z,357.90
2018-06-01T03:26:10.118Z,388.40
2018-06-01T03:27:10.111Z,394.10
2018-06-01T03:28:10.155Z,398.70
2018-06-01T03:29:10.199Z,397.40
2018-06-01T03:30:10.242Z,389.60
2018-06-01T03:31:10.303Z,399.20
2018-06-01T03:32:10.347Z,375.10
2018-06-01T03:33:10.594Z,362.10
2018-06-01T03:34:10.446Z,358.70
2018-06-01T03:35:10.490Z,372.30
2018-06-01T03:36:10.541Z,397.50
2018-06-01T03:37:10.569Z,393.80
2018-06-01T03:38:10.615Z,381.40
2018-06-01T03:39:10.676Z,382.00
2018-06-01T03:40:10.718Z,371.40
2018-06-01T03:41:10.753Z,369.60
2018-06-01T03:42:10.799Z,354.70
2018-06-01T03:43:10.849Z,359.10
2018-06-01T03:44:10.893Z,375.90
2018-06-01T03:45:11.129Z,372.10
2018-06-01T03:46:10.982Z,364.70
2018-06-01T03:47:11.037Z,372.70
2018-06-01T03:48:11.059Z,362.20
2018-06-01T03:49:11.130Z,337.80
2018-06-01T03:50:11.157Z,339.30
2018-06-01T03:51:11.217Z,365.90
2018-06-01T03:52:11.256Z,351.20
2018-06-01T03:53:11.291Z,369.60
2018-06-01T03:54:11.331Z,348.70
2018-06-01T03:55:11.392Z,352.40
2018-06-01T03:56:11.431Z,342.30
2018-06-01T03:57:11.477Z,344.00
2018-06-01T03:58:11.516Z,334.70
2018-06-01T03:59:11.559Z,318.10
2018-06-01T04:00:11.609Z,350.10
2018-06-01T04:01:11.663Z,324.70
2018-06-01T04:02:11.699Z,330.40
2018-06-01T04:03:11.763Z,320.00
2018-06-01T04:04:11.791Z,307.00
2018-06-01T04:05:11.851Z,282.70
2018-06-01T04:06:11.885Z,237.90
2018-06-01T04:07:12.145Z,226.50
2018-06-01T04:08:11.984Z,234.50
2018-06-01T04:09:12.038Z,231.90
2018-06-01T04:10:12.086Z,255.00
2018-06-01T04:11:12.131Z,240.10
2018-06-01T04:12:12.159Z,229.90
2018-06-01T04:13:12.219Z,260.80
2018-06-01T04:14:12.263Z,271.30
2018-06-01T04:15:12.288Z,302.20
2018-06-01T04:16:12.338Z,276.40
2018-06-01T04:17:12.396Z,272.60
2018-06-01T04:18:12.424Z,281.50
2018-06-01T04:19:12.498Z,292.90
2018-06-01T04:20:12.545Z,282.00
2018-06-01T04:21:12.591Z,293.40
2018-06-01T04:22:12.828Z,291.70
2018-06-01T04:23:12.667Z,317.10
2018-06-01T04:24:12.708Z,291.20
2018-06-01T04:25:12.749Z,230.10
2018-06-01T04:26:12.790Z,212.30
2018-06-01T04:27:12.854Z,220.10
2018-06-01T04:28:12.880Z,265.50
2018-06-01T04:29:12.926Z,311.50
2018-06-01T04:30:12.970Z,317.60
2018-06-01T04:31:13.041Z,318.60
2018-06-01T04:32:13.068Z,313.80
2018-06-01T04:33:13.119Z,337.60
2018-06-01T04:34:13.369Z,338.90
2018-06-01T04:35:13.223Z,345.40
2018-06-01T04:36:13.245Z,333.00
2018-06-01T04:37:13.286Z,299.60
2018-06-01T04:38:13.350Z,315.90
2018-06-01T04:39:13.388Z,310.00
2018-06-01T04:40:13.445Z,273.60
2018-06-01T04:41:13.474Z,303.20
2018-06-01T04:42:13.522Z,248.50
2018-06-01T04:43:13.563Z,273.60
2018-06-01T04:44:13.612Z,249.30
2018-06-01T04:45:13.658Z,310.80
2018-06-01T04:46:13.901Z,270.30
2018-06-01T04:47:13.762Z,247.70
2018-06-01T04:48:13.792Z,236.60
2018-06-01T04:49:13.873Z,248.90
2018-06-01T04:50:13.908Z,269.40
2018-06-01T04:51:13.925Z,301.90
2018-06-01T04:52:13.994Z,334.20
2018-06-01T04:53:14.045Z,317.10
2018-06-01T04:54:14.079Z,321.30
2018-06-01T04:55:14.114Z,342.70
2018-06-01T04:56:14.198Z,300.70
2018-06-01T04:57:14.423Z,265.80
2018-06-01T04:58:14.265Z,272.50
2018-06-01T04:59:14.298Z,274.30
2018-06-01T05:00:14.362Z,318.50
2018-06-01T05:01:14.404Z,316.70
2018-06-01T05:02:14.439Z,291.50
2018-06-01T05:03:14.494Z,343.60
2018-06-01T05:04:14.527Z,413.10
2018-06-01T05:05:14.578Z,370.80
2018-06-01T05:06:14.610Z,402.50
2018-06-01T05:07:14.660Z,385.10
2018-06-01T05:08:14.724Z,374.10
2018-06-01T05:09:14.751Z,382.80
2018-06-01T05:10:14.813Z,360.40
2018-06-01T05:11:14.837Z,343.00
2018-06-01T05:12:14.896Z,346.30
2018-06-01T05:13:15.150Z,389.50
2018-06-01T05:14:14.984Z,398.60
2018-06-01T05:15:15.038Z,373.20
2018-06-01T05:16:15.082Z,339.80
2018-06-01T05:17:15.130Z,359.50
2018-06-01T05:18:15.166Z,346.50
2018-06-01T05:19:15.208Z,339.70
2018-06-01T05:20:15.254Z,348.80
2018-06-01T05:21:15.298Z,364.40
2018-06-01T05:22:15.377Z,344.80
2018-06-01T05:23:15.390Z,331.70
2018-06-01T05:24:15.433Z,374.50
2018-06-01T05:25:15.477Z,420.80
2018-06-01T05:26:15.548Z,362.60
2018-06-01T05:27:15.571Z,399.80
2018-06-01T05:28:15.825Z,369.80
2018-06-01T05:29:15.680Z,340.30
2018-06-01T05:30:15.721Z,357.00
2018-06-01T05:31:15.764Z,344.00
2018-06-01T05:32:15.815Z,376.30
2018-06-01T05:33:15.855Z,324.90
2018-06-01T05:34:15.884Z,354.70
2018-06-01T05:35:15.944Z,334.20
2018-06-01T05:36:15.998Z,338.90
2018-06-01T05:37:16.035Z,355.20
2018-06-01T05:38:16.083Z,326.50
2018-06-01T05:39:16.115Z,330.40
2018-06-01T05:40:16.161Z,276.40
2018-06-01T05:41:16.214Z,338.40
2018-06-01T05:42:16.276Z,296.20
2018-06-01T05:43:16.328Z,346.50
2018-06-01T05:44:16.565Z,364.30
2018-06-01T05:45:16.392Z,323.20
2018-06-01T05:46:16.451Z,331.10
2018-06-01T05:47:16.530Z,390.80
2018-06-01T05:48:16.538Z,340.20
2018-06-01T05:49:16.582Z,350.70
2018-06-01T05:50:16.630Z,370.60
2018-06-01T05:51:16.665Z,317.40
2018-06-01T05:52:16.728Z,333.80
2018-06-01T05:53:16.767Z,308.50
2018-06-01T05:54:16.808Z,326.90
2018-06-01T05:55:17.066Z,348.30
2018-06-01T05:56:16.900Z,333.40
2018-06-01T05:57:16.930Z,286.00
2018-06-01T05:58:16.990Z,324.00
2018-06-01T05:59:17.043Z,282.80
2018-06-01T06:00:17.076Z,287.90
2018-06-01T06:01:17.116Z,321.80
2018-06-01T06:02:17.165Z,291.20
2018-06-01T06:03:17.216Z,251.20
2018-06-01T06:04:17.251Z,310.00
2018-06-01T06:05:17.309Z,342.90
2018-06-01T06:06:17.553Z,316.40
2018-06-01T06:07:17.402Z,342.00
2018-06-01T06:08:17.454Z,369.40
2018-06-01T06:09:17.488Z,321.10
2018-06-01T06:10:17.539Z,433.50
2018-06-01T06:11:17.568Z,392.40
2018-06-01T06:12:17.604Z,340.70
2018-06-01T06:13:17.703Z,372.90
2018-06-01T06:14:17.715Z,396.30
2018-06-01T06:15:17.739Z,398.00
2018-06-01T06:16:17.785Z,403.10
2018-06-01T06:17:17.850Z,439.40
2018-06-01T06:18:17.873Z,444.70
2018-06-01T06:19:17.932Z,465.90
2018-06-01T06:20:17.981Z,451.10
2018-06-01T06:21:18.021Z,441.20
2018-06-01T06:22:18.255Z,478.50
2018-06-01T06:23:18.120Z,470.50
2018-06-01T06:24:18.143Z,479.70
2018-06-01T06:25:18.188Z,507.30
2018-06-01T06:26:18.247Z,419.10
2018-06-01T06:27:18.298Z,429.10
2018-06-01T06:28:18.337Z,401.90
2018-06-01T06:29:18.369Z,417.20
2018-06-01T06:30:18.418Z,468.20
2018-06-01T06:31:18.500Z,425.50
2018-06-01T06:32:18.521Z,495.30
2018-06-01T06:33:18.765Z,548.60
2018-06-01T06:34:18.612Z,554.70
2018-06-01T06:35:18.657Z,521.90
2018-06-01T06:36:18.696Z,511.80
2018-06-01T06:37:18.739Z,537.20
2018-06-01T06:38:18.783Z,560.20
2018-06-01T06:39:18.829Z,525.40
2018-06-01T06:40:18.870Z,552.00
2018-06-01T06:41:18.906Z,559.70
2018-06-01T06:42:18.948Z,576.70
2018-06-01T06:43:18.997Z,597.30
2018-06-01T06:44:19.259Z,584.10
2018-06-01T06:45:19.110Z,585.30
2018-06-01T06:46:19.155Z,570.50
2018-06-01T06:47:19.174Z,594.30
2018-06-01T06:48:19.224Z,557.00
2018-06-01T06:49:19.263Z,564.30
2018-06-01T06:50:19.314Z,607.00
2018-06-01T06:51:19.386Z,561.90
2018-06-01T06:52:19.414Z,534.10
2018-06-01T06:53:19.456Z,556.60
2018-06-01T06:54:19.499Z,589.20
2018-06-01T06:55:19.757Z,565.40
2018-06-01T06:56:19.577Z,560.20
2018-06-01T06:57:19.644Z,574.10
2018-06-01T06:58:19.668Z,534.50
2018-06-01T06:59:19.714Z,525.60
2018-06-01T07:00:19.779Z,526.00
2018-06-01T07:01:19.802Z,575.00
2018-06-01T07:02:19.861Z,582.60
2018-06-01T07:03:19.907Z,588.20
2018-06-01T07:04:19.955Z,584.00
2018-06-01T07:05:19.979Z,568.40
2018-06-01T07:06:20.034Z,612.70
2018-06-01T07:07:20.099Z,623.90
2018-06-01T07:08:20.131Z,630.00
2018-06-01T07:09:20.173Z,635.60
2018-06-01T07:10:20.237Z,617.80
2018-06-01T07:11:20.501Z,645.50
2018-06-01T07:12:20.315Z,636.10
2018-06-01T07:13:20.358Z,632.60
2018-06-01T07:14:20.401Z,633.60
2018-06-01T07:15:20.430Z,631.60
2018-06-01T07:16:20.489Z,622.10
2018-06-01T07:17:20.514Z,623.20
2018-06-01T07:18:20.576Z,624.30
2018-06-01T07:19:20.605Z,628.70
2018-06-01T07:20:20.684Z,609.40
2018-06-01T07:21:20.728Z,611.10
2018-06-01T07:22:20.748Z,613.30
2018-06-01T07:23:20.999Z,596.60
2018-06-01T07:24:20.849Z,622.10
2018-06-01T07:25:20.875Z,610.10
2018-06-01T07:26:20.939Z,639.70
2018-06-01T07:27:20.975Z,626.10
2018-06-01T07:28:21.014Z,615.60
2018-06-01T07:29:21.059Z,609.30
2018-06-01T07:30:21.105Z,615.70
2018-06-01T07:31:21.158Z,624.30
2018-06-01T07:32:21.184Z,622.60
2018-06-01T07:33:21.302Z,626.30
2018-06-01T07:34:21.288Z,621.60
2018-06-01T07:35:21.323Z,613.80
2018-06-01T07:36:21.365Z,610.80
2018-06-01T07:37:21.425Z,616.10
2018-06-01T07:38:21.655Z,598.30
2018-06-01T07:39:21.527Z,607.40
2018-06-01T07:40:21.565Z,609.70
2018-06-01T07:41:21.595Z,612.60
2018-06-01T07:42:21.659Z,633.60
2018-06-01T07:43:21.689Z,609.00
2018-06-01T07:44:21.825Z,623.40
2018-06-01T07:45:21.935Z,629.00
2018-06-01T07:46:21.816Z,604.40
2018-06-01T07:47:21.882Z,615.70
2018-06-01T07:48:21.927Z,624.30
2018-06-01T07:49:21.961Z,608.40
2018-06-01T07:50:22.213Z,605.50
2018-06-01T07:51:22.064Z,612.70
2018-06-01T07:52:22.112Z,589.70
2018-06-01T07:53:22.137Z,602.20
2018-06-01T07:54:22.182Z,585.20
2018-06-01T07:55:22.235Z,569.20
2018-06-01T07:56:22.264Z,603.90
2018-06-01T07:57:22.315Z,542.30
2018-06-01T07:58:22.369Z,584.60
2018-06-01T07:59:22.394Z,582.30
2018-06-01T08:00:22.452Z,585.90
2018-06-01T08:01:22.503Z,583.70
2018-06-01T08:02:22.541Z,581.40
2018-06-01T08:03:22.573Z,569.30
2018-06-01T08:04:22.629Z,569.60
2018-06-01T08:05:22.663Z,628.20
2018-06-01T08:06:22.906Z,490.90
2018-06-01T08:07:22.752Z,536.00
2018-06-01T08:08:22.820Z,530.30
2018-06-01T08:09:22.861Z,549.20
2018-06-01T08:10:22.900Z,547.00
2018-06-01T08:11:22.940Z,511.40
2018-06-01T08:12:22.968Z,519.40
2018-06-01T08:13:23.029Z,526.00
2018-06-01T08:14:23.079Z,542.20
2018-06-01T08:15:23.114Z,542.20
2018-06-01T08:16:23.149Z,561.80
2018-06-01T08:17:23.210Z,538.50
2018-06-01T08:18:23.450Z,516.70
2018-06-01T08:19:23.285Z,526.20
2018-06-01T08:20:23.368Z,552.00
2018-06-01T08:21:23.391Z,563.60
2018-06-01T08:22:23.423Z,540.10
2018-06-01T08:23:23.469Z,546.90
2018-06-01T08:24:23.513Z,549.30
2018-06-01T08:25:23.569Z,501.20
2018-06-01T08:26:23.602Z,498.10
2018-06-01T08:27:23.634Z,492.10
2018-06-01T08:28:23.695Z,498.20
2018-06-01T08:29:23.734Z,513.90
2018-06-01T08:30:23.775Z,526.30
2018-06-01T08:31:23.827Z,487.30
2018-06-01T08:32:23.896Z,465.40
2018-06-01T08:33:23.899Z,488.40
2018-06-01T08:34:23.959Z,498.60
2018-06-01T08:35:24.053Z,490.30
2018-06-01T08:36:24.240Z,512.30
2018-06-01T08:37:24.091Z,493.80
2018-06-01T08:38:24.122Z,467.50
2018-06-01T08:39:24.191Z,498.90
2018-06-01T08:40:24.227Z,498.50
2018-06-01T08:41:24.252Z,487.30
2018-06-01T08:42:24.309Z,490.40
2018-06-01T08:43:24.363Z,506.60
2018-06-01T08:44:24.402Z,525.20
2018-06-01T08:45:24.443Z,525.70
2018-06-01T08:46:24.501Z,528.70
2018-06-01T08:47:24.525Z,513.30
2018-06-01T08:48:24.580Z,484.20
2018-06-01T08:49:24.611Z,495.20
2018-06-01T08:50:24.667Z,487.60
2018-06-01T08:51:24.908Z,534.10
2018-06-01T08:52:24.766Z,575.10
2018-06-01T08:53:24.797Z,553.00
2018-06-01T08:54:24.834Z,565.80
2018-06-01T08:55:24.880Z,555.40
2018-06-01T08:56:24.934Z,523.00
2018-06-01T08:57:24.957Z,498.10
2018-06-01T08:58:25.005Z,526.00
2018-06-01T08:59:25.068Z,531.30
2018-06-01T09:00:25.125Z,565.10
2018-06-01T09:01:25.141Z,563.60
2018-06-01T09:02:25.413Z,547.40
2018-06-01T09:03:25.246Z,562.10
2018-06-01T09:04:25.283Z,550.40
2018-06-01T09:05:25.321Z,561.90
2018-06-01T09:06:25.375Z,553.30
2018-06-01T09:07:25.406Z,564.60
2018-06-01T09:08:25.449Z,559.70
2018-06-01T09:09:25.490Z,551.90
2018-06-01T09:10:25.538Z,549.00
2018-06-01T09:11:25.587Z,564.80
2018-06-01T09:12:25.645Z,537.60
2018-06-01T09:13:25.683Z,559.60
2018-06-01T09:14:25.724Z,542.30
2018-06-01T09:15:25.756Z,558.90
2018-06-01T09:16:25.795Z,563.10
2018-06-01T09:17:26.043Z,557.70
2018-06-01T09:18:25.886Z,561.80
2018-06-01T09:19:25.944Z,571.20
2018-06-01T09:20:25.986Z,574.80
2018-06-01T09:21:26.012Z,561.60
2018-06-01T09:22:26.078Z,561.90
2018-06-01T09:23:26.132Z,558.30
2018-06-01T09:24:26.161Z,542.30
2018-06-01T09:25:26.210Z,521.30
2018-06-01T09:26:26.251Z,556.30
2018-06-01T09:27:26.293Z,501.00
2018-06-01T09:28:26.395Z,522.00
2018-06-01T09:29:26.563Z,558.10
2018-06-01T09:30:26.421Z,550.00
2018-06-01T09:31:26.457Z,550.60
2018-06-01T09:32:26.495Z,574.50
2018-06-01T09:33:26.558Z,566.20
2018-06-01T09:34:26.634Z,560.70
2018-06-01T09:35:26.653Z,555.70
2018-06-01T09:36:26.673Z,531.00
2018-06-01T09:37:26.731Z,531.00
2018-06-01T09:38:26.771Z,547.80
2018-06-01T09:39:26.812Z,533.80
2018-06-01T09:40:27.054Z,539.70
2018-06-01T09:41:26.884Z,526.30
2018-06-01T09:42:26.940Z,535.10
2018-06-01T09:43:27.005Z,549.20
2018-06-01T09:44:27.026Z,537.80
2018-06-01T09:45:27.077Z,540.10
2018-06-01T09:46:27.114Z,534.70
2018-06-01T09:47:27.147Z,527.40
2018-06-01T09:48:27.199Z,519.60
2018-06-01T09:49:27.246Z,494.90
2018-06-01T09:50:27.273Z,484.30
2018-06-01T09:51:27.531Z,443.50
2018-06-01T09:52:27.358Z,479.50
2018-06-01T09:53:27.433Z,454.60
2018-06-01T09:54:27.460Z,487.80
2018-06-01T09:55:27.556Z,529.10
2018-06-01T09:56:27.553Z,529.20
2018-06-01T09:57:27.572Z,504.80
2018-06-01T09:58:27.629Z,447.50
2018-06-01T09:59:27.676Z,459.70
2018-06-01T10:00:27.729Z,446.00
2018-06-01T10:01:27.753Z,510.90
2018-06-01T10:02:27.787Z,529.90
2018-06-01T10:03:28.038Z,567.20
2018-06-01T10:04:27.917Z,564.50
2018-06-01T10:05:27.925Z,577.10
2018-06-01T10:06:27.988Z,551.80
2018-06-01T10:07:28.034Z,545.40
2018-06-01T10:08:28.072Z,561.80
2018-06-01T10:09:28.102Z,554.00
2018-06-01T10:10:28.146Z,528.90
2018-06-01T10:11:28.194Z,555.20
2018-06-01T10:12:28.240Z,565.50
2018-06-01T10:13:28.288Z,555.50
2018-06-01T10:14:28.332Z,550.50
2018-06-01T10:15:28.356Z,528.10
2018-06-01T10:16:28.397Z,533.50
2018-06-01T10:17:28.445Z,538.60
2018-06-01T10:18:28.496Z,548.10
2018-06-01T10:19:28.755Z,529.40
2018-06-01T10:20:28.583Z,538.40
2018-06-01T10:21:28.612Z,522.70
2018-06-01T10:22:28.664Z,533.10
2018-06-01T10:23:28.707Z,533.90
2018-06-01T10:24:28.765Z,501.90
2018-06-01T10:25:28.789Z,512.00
2018-06-01T10:26:28.872Z,502.90
2018-06-01T10:27:28.892Z,494.90
2018-06-01T10:28:28.933Z,507.00
2018-06-01T10:29:28.959Z,534.40
2018-06-01T10:30:29.010Z,544.30
2018-06-01T10:31:29.059Z,536.20
2018-06-01T10:32:29.115Z,500.90
2018-06-01T10:33:29.132Z,512.00
2018-06-01T10:34:29.200Z,537.40
2018-06-01T10:35:29.248Z,511.20
2018-06-01T10:36:29.284Z,650.20
2018-06-01T10:37:29.312Z,535.40
2018-06-01T10:38:29.364Z,533.10
2018-06-01T10:39:29.437Z,501.00
2018-06-01T10:40:29.447Z,458.30
2018-06-01T10:41:29.498Z,480.80
2018-06-01T10:42:29.550Z,366.60
2018-06-01T10:43:29.593Z,341.10
2018-06-01T10:44:29.635Z,410.90
2018-06-01T10:45:29.671Z,323.80
2018-06-01T10:46:29.710Z,242.40
2018-06-01T10:47:29.767Z,278.40
2018-06-01T10:48:29.800Z,267.50
2018-06-01T10:49:29.846Z,219.40
2018-06-01T10:50:29.887Z,140.60
2018-06-01T10:51:29.944Z,175.50
2018-06-01T10:52:30.203Z,320.50
2018-06-01T10:53:30.030Z,312.30
2018-06-01T10:54:30.214Z,335.30
2018-06-01T10:55:30.121Z,343.20
2018-06-01T10:56:30.171Z,294.10
2018-06-01T10:57:30.231Z,316.90
2018-06-01T10:58:30.263Z,376.90
2018-06-01T10:59:30.327Z,347.90
2018-06-01T11:00:30.361Z,339.60
2018-06-01T11:01:30.453Z,336.20
2018-06-01T11:02:30.470Z,287.20
2018-06-01T11:03:30.533Z,286.40
2018-06-01T11:04:30.555Z,509.40
2018-06-01T11:05:30.616Z,349.30
2018-06-01T11:06:30.662Z,344.40
2018-06-01T11:07:30.698Z,505.60
2018-06-01T11:08:30.736Z,345.20
2018-06-01T11:09:30.788Z,328.10
2018-06-01T11:10:30.852Z,335.50
2018-06-01T11:11:30.898Z,396.50
2018-06-01T11:12:30.938Z,327.60
2018-06-01T11:13:30.991Z,332.80
2018-06-01T11:14:31.082Z,336.70
2018-06-01T11:15:31.097Z,468.80
2018-06-01T11:16:31.139Z,331.50
2018-06-01T11:17:31.204Z,363.70
2018-06-01T11:18:31.225Z,483.60
2018-06-01T11:19:31.277Z,346.90
2018-06-01T11:20:31.522Z,349.60
2018-06-01T11:21:31.439Z,374.40
2018-06-01T11:22:31.420Z,339.00
2018-06-01T11:23:31.481Z,346.60
2018-06-01T11:24:31.532Z,337.40
2018-06-01T11:25:31.567Z,482.40
2018-06-01T11:26:31.630Z,316.90
2018-06-01T11:27:31.672Z,334.80
2018-06-01T11:28:31.735Z,469.90
2018-06-01T11:29:31.788Z,332.90
2018-06-01T11:30:31.830Z,336.70
2018-06-01T11:31:31.870Z,351.30
2018-06-01T11:32:31.929Z,436.20
2018-06-01T11:33:31.978Z,329.80
2018-06-01T11:34:32.020Z,356.80
2018-06-01T11:35:32.085Z,320.80
2018-06-01T11:36:32.128Z,322.50
2018-06-01T11:37:32.185Z,334.40
2018-06-01T11:38:32.215Z,301.70
2018-06-01T11:39:32.281Z,327.00
2018-06-01T11:40:32.344Z,321.70
2018-06-01T11:41:32.921Z,326.90
2018-06-01T11:42:32.420Z,336.60
2018-06-01T11:43:32.483Z,313.10
2018-06-01T11:44:32.531Z,317.10
2018-06-01T11:45:32.585Z,297.90
2018-06-01T11:46:32.634Z,302.10
2018-06-01T11:47:32.694Z,286.60
2018-06-01T11:48:32.724Z,297.30
2018-06-01T11:49:32.779Z,274.40
2018-06-01T11:50:32.831Z,267.20
2018-06-01T11:51:32.901Z,284.20
2018-06-01T11:52:32.955Z,276.40
2018-06-01T11:53:33.004Z,262.20
2018-06-01T11:54:33.054Z,238.70
2018-06-01T11:55:33.096Z,246.30
2018-06-01T11:56:33.141Z,236.00
2018-06-01T11:57:33.203Z,232.10
2018-06-01T11:58:33.254Z,221.30
2018-06-01T11:59:33.517Z,214.00
2018-06-01T12:00:33.364Z,238.50
2018-06-01T12:01:33.427Z,203.60
2018-06-01T12:02:33.468Z,204.30
2018-06-01T12:03:33.534Z,198.70
2018-06-01T12:04:33.574Z,187.80
2018-06-01T12:05:33.630Z,190.70
2018-06-01T12:06:33.694Z,189.40
2018-06-01T12:07:33.744Z,184.20
2018-06-01T12:08:33.797Z,188.40
2018-06-01T12:09:33.849Z,191.00
2018-06-01T12:10:33.904Z,181.10
2018-06-01T12:11:33.959Z,177.10
2018-06-01T12:12:34.217Z,193.50
2018-06-01T12:13:34.075Z,196.70
2018-06-01T12:14:34.119Z,190.80
2018-06-01T12:15:34.184Z,181.40
2018-06-01T12:16:34.231Z,191.40
2018-06-01T12:17:34.337Z,185.70
2018-06-01T12:18:34.348Z,177.60
2018-06-01T12:19:34.392Z,176.50
2018-06-01T12:20:34.448Z,135.70
2018-06-01T12:21:34.486Z,139.90
2018-06-01T12:22:34.557Z,150.10
2018-06-01T12:23:34.595Z,162.20
2018-06-01T12:24:34.651Z,139.50
2018-06-01T12:25:34.718Z,127.40
2018-06-01T12:26:34.761Z,140.10
2018-06-01T12:27:34.837Z,147.70
2018-06-01T12:28:34.878Z,143.40